Time;durP1;ratioP1;P1;durP2;ratioP2;P2;SDS_P1;SDS_P2;PMS_P1;PMS_P2;Temp;Humidity;BMP_temperature;BMP_pressure;BME280_temperature;BME280_humidity;BME280_pressure;Samples;Min_cycle;Max_cycle;Signal;HPM_P1;HPM_P2
2021/11/24 00:00:35;;;;;;;22.65;10.30;;;9.10;99.90;;;;;;5035923;28;20114;-74
2021/11/24 00:03:01;;;;;;;22.45;10.13;;;9.10;99.90;;;;;;5035990;28;20488;-74
2021/11/24 00:05:26;;;;;;;24.60;10.68;;;9.00;99.90;;;;;;5035677;28;20083;-74
2021/11/24 00:07:52;;;;;;;25.67;9.80;;;9.00;99.90;;;;;;5036635;28;20153;-75
2021/11/24 00:10:19;;;;;;;25.60;11.18;;;9.00;99.90;;;;;;5035740;28;20041;-74
2021/11/24 00:12:46;;;;;;;23.80;10.43;;;9.00;99.90;;;;;;5035696;28;20041;-74
2021/11/24 00:15:12;;;;;;;30.00;9.85;;;9.00;99.90;;;;;;5035424;28;20041;-74
2021/11/24 00:17:38;;;;;;;24.52;10.65;;;8.90;99.90;;;;;;5035421;28;20052;-74
2021/11/24 00:20:05;;;;;;;27.05;11.18;;;9.00;99.90;;;;;;5036134;28;20040;-74
2021/11/24 00:22:31;;;;;;;27.20;11.13;;;8.90;99.90;;;;;;5035614;28;20106;-74
2021/11/24 00:24:57;;;;;;;26.92;11.25;;;8.90;99.90;;;;;;5035720;28;20140;-74
2021/11/24 00:27:23;;;;;;;26.70;11.52;;;8.90;99.90;;;;;;5035631;28;20562;-74
2021/11/24 00:29:50;;;;;;;26.90;11.75;;;8.90;99.90;;;;;;5036266;28;20040;-74
2021/11/24 00:32:16;;;;;;;26.17;11.23;;;8.90;99.90;;;;;;5035638;28;20037;-74
2021/11/24 00:34:42;;;;;;;22.65;10.40;;;8.90;99.90;;;;;;5035743;28;20043;-74
2021/11/24 00:37:08;;;;;;;22.98;10.88;;;8.90;99.90;;;;;;5035843;28;20042;-74
2021/11/24 00:39:34;;;;;;;33.38;11.80;;;8.90;99.90;;;;;;5036089;28;20088;-74
2021/11/24 00:42:00;;;;;;;27.20;11.18;;;8.90;99.90;;;;;;5035479;28;20453;-74
2021/11/24 00:44:26;;;;;;;22.48;10.88;;;8.90;99.90;;;;;;5035585;28;20105;-74
2021/11/24 00:46:51;;;;;;;21.42;10.88;;;8.90;99.90;;;;;;5035489;28;20048;-73
2021/11/24 00:49:17;;;;;;;23.65;11.15;;;8.90;99.90;;;;;;5035848;28;20167;-74
2021/11/24 00:51:43;;;;;;;21.60;9.60;;;8.90;99.90;;;;;;5035555;28;20048;-74
2021/11/24 00:54:09;;;;;;;25.90;10.68;;;8.80;99.90;;;;;;5035406;28;20037;-74
2021/11/24 00:56:36;;;;;;;25.55;10.77;;;8.80;99.90;;;;;;5035679;28;20098;-74
2021/11/24 00:59:04;;;;;;;27.80;10.93;;;8.80;99.90;;;;;;5034796;28;20086;-74
2021/11/24 01:01:30;;;;;;;28.35;10.57;;;8.80;99.90;;;;;;5035000;28;20038;-74
2021/11/24 01:03:56;;;;;;;19.80;9.45;;;8.80;99.90;;;;;;5034925;28;20041;-74
2021/11/24 01:06:22;;;;;;;23.13;10.23;;;8.70;99.90;;;;;;5034987;28;20516;-74
2021/11/24 01:08:48;;;;;;;28.00;9.88;;;8.70;99.90;;;;;;5035864;28;20037;-74
2021/11/24 01:11:13;;;;;;;17.80;8.82;;;8.70;99.90;;;;;;5035185;28;20056;-74
2021/11/24 01:13:40;;;;;;;17.48;9.90;;;8.70;99.90;;;;;;5034886;28;20044;-73
2021/11/24 01:16:07;;;;;;;26.25;10.55;;;8.70;99.90;;;;;;5035154;28;20124;-73
2021/11/24 01:18:33;;;;;;;20.65;10.13;;;8.70;99.90;;;;;;5034932;28;20128;-74
2021/11/24 01:20:59;;;;;;;28.17;10.40;;;8.70;99.90;;;;;;5035042;28;20072;-74
2021/11/24 01:23:24;;;;;;;20.80;10.02;;;8.80;99.90;;;;;;5035184;28;20488;-74
2021/11/24 01:25:51;;;;;;;21.10;9.90;;;8.80;99.90;;;;;;5034547;28;20045;-73
2021/11/24 01:28:16;;;;;;;19.73;9.60;;;8.80;99.90;;;;;;5034429;28;20076;-73
2021/11/24 01:30:42;;;;;;;20.98;9.32;;;8.70;99.90;;;;;;5034946;28;20485;-74
2021/11/24 01:33:08;;;;;;;19.90;9.63;;;8.70;99.90;;;;;;5034765;28;20041;-74
2021/11/24 01:35:34;;;;;;;16.60;8.95;;;8.70;99.90;;;;;;5035122;28;20045;-74
2021/11/24 01:38:00;;;;;;;22.95;9.57;;;8.70;99.90;;;;;;5035203;28;20069;-73
2021/11/24 01:40:26;;;;;;;21.80;10.27;;;8.60;99.90;;;;;;5034767;28;20112;-74
2021/11/24 01:42:51;;;;;;;19.73;7.85;;;8.60;99.90;;;;;;5034523;28;20045;-73
2021/11/24 01:45:20;;;;;;;15.75;8.40;;;8.60;99.90;;;;;;5034716;28;20116;-74
2021/11/24 01:47:47;;;;;;;15.45;7.97;;;8.60;99.90;;;;;;5034568;28;20045;-73
2021/11/24 01:50:14;;;;;;;17.05;8.50;;;8.60;99.90;;;;;;5034870;28;20034;-74
2021/11/24 01:52:40;;;;;;;15.25;8.55;;;8.70;99.90;;;;;;5034400;28;20042;-74
2021/11/24 01:55:08;;;;;;;18.17;8.65;;;8.60;99.90;;;;;;5034408;28;20041;-73
2021/11/24 01:57:34;;;;;;;19.90;9.88;;;8.70;99.90;;;;;;5034687;28;20045;-74
2021/11/24 02:00:00;;;;;;;20.45;9.50;;;8.60;99.90;;;;;;5035033;28;20061;-74
2021/11/24 02:02:27;;;;;;;19.63;9.25;;;8.60;99.90;;;;;;5034154;28;20060;-74
2021/11/24 02:04:54;;;;;;;22.45;8.50;;;8.60;99.90;;;;;;5034205;28;20037;-74
2021/11/24 02:07:20;;;;;;;20.08;8.98;;;8.60;99.90;;;;;;5034749;28;20041;-73
2021/11/24 02:09:47;;;;;;;19.50;8.55;;;8.60;99.90;;;;;;5034559;28;20041;-74
2021/11/24 02:12:14;;;;;;;23.25;9.18;;;8.60;99.90;;;;;;5034257;28;20072;-74
2021/11/24 02:14:41;;;;;;;28.88;8.85;;;8.60;99.90;;;;;;5034411;28;20041;-74
2021/11/24 02:17:09;;;;;;;17.27;8.90;;;8.60;99.90;;;;;;5034309;28;20042;-73
2021/11/24 02:19:36;;;;;;;14.18;8.10;;;8.60;99.90;;;;;;5034979;28;20468;-74
2021/11/24 02:22:03;;;;;;;20.70;8.23;;;8.60;99.90;;;;;;5033909;28;20642;-74
2021/11/24 02:24:32;;;;;;;21.65;8.25;;;8.60;99.90;;;;;;5034383;28;20053;-73
2021/11/24 02:26:59;;;;;;;18.88;8.20;;;8.60;99.90;;;;;;5033844;28;20041;-74
2021/11/24 02:29:25;;;;;;;17.77;8.23;;;8.70;99.90;;;;;;5034224;28;20045;-73
2021/11/24 02:31:53;;;;;;;19.02;7.80;;;8.70;99.90;;;;;;5033620;28;20033;-73
2021/11/24 02:34:20;;;;;;;21.20;7.30;;;8.60;99.90;;;;;;5034079;28;20048;-74
2021/11/24 02:36:47;;;;;;;20.33;7.38;;;8.60;99.90;;;;;;5033957;28;20041;-74
2021/11/24 02:39:14;;;;;;;17.95;7.60;;;8.90;99.90;;;;;;5036771;28;20508;-74
2021/11/24 02:41:40;;;;;;;17.27;8.38;;;8.90;99.90;;;;;;5037590;28;20068;-74
2021/11/24 02:44:36;;;;;;;18.48;7.75;;;9.00;99.90;;;;;;5037667;28;20063;-74
2021/11/24 02:47:21;;;;;;;18.35;7.97;;;9.10;99.90;;;;;;5037419;28;20055;-74
2021/11/24 02:49:51;;;;;;;20.95;7.80;;;9.10;99.90;;;;;;5037262;28;20033;-74
2021/11/24 02:52:18;;;;;;;18.13;8.43;;;9.10;99.90;;;;;;5037406;28;20584;-74
2021/11/24 02:54:54;;;;;;;20.08;8.52;;;9.10;99.90;;;;;;5037408;28;20045;-74
2021/11/24 02:57:28;;;;;;;13.88;7.85;;;9.10;99.90;;;;;;5037426;28;20566;-74
2021/11/24 02:59:54;;;;;;;17.65;8.32;;;9.10;99.90;;;;;;5037664;28;20041;-74
2021/11/24 03:02:20;;;;;;;22.02;8.48;;;9.10;99.90;;;;;;5036866;28;20042;-74
2021/11/24 03:04:46;;;;;;;20.95;8.70;;;9.10;99.90;;;;;;5037385;28;20124;-74
2021/11/24 03:07:11;;;;;;;18.15;8.52;;;9.00;99.90;;;;;;5037519;28;20042;-74
2021/11/24 03:09:37;;;;;;;20.48;8.43;;;9.00;99.90;;;;;;5036907;28;20088;-74
2021/11/24 03:12:03;;;;;;;17.38;8.35;;;9.20;99.90;;;;;;5037129;28;20053;-74
2021/11/24 03:14:29;;;;;;;22.33;7.35;;;9.20;99.90;;;;;;5036903;28;20500;-74
2021/11/24 03:16:55;;;;;;;21.48;9.48;;;9.30;99.90;;;;;;5036862;28;20098;-75
2021/11/24 03:19:21;;;;;;;16.83;7.90;;;9.30;99.90;;;;;;5037604;28;20037;-74
2021/11/24 03:21:47;;;;;;;19.13;7.40;;;9.40;99.90;;;;;;5037275;28;20048;-74
2021/11/24 03:24:13;;;;;;;12.45;6.75;;;9.40;99.90;;;;;;5037198;28;20041;-74
2021/11/24 03:26:39;;;;;;;13.40;6.85;;;9.30;99.90;;;;;;5037161;28;20045;-74
2021/11/24 03:29:05;;;;;;;16.80;7.25;;;9.30;99.90;;;;;;5037738;28;20091;-75
2021/11/24 03:31:31;;;;;;;17.63;7.05;;;9.30;99.90;;;;;;5036923;28;20048;-74
2021/11/24 03:33:57;;;;;;;15.30;7.10;;;9.40;99.90;;;;;;5036734;28;20563;-75
2021/11/24 03:36:23;;;;;;;17.00;6.78;;;9.40;99.90;;;;;;5036949;28;20041;-74
2021/11/24 03:38:49;;;;;;;22.65;8.95;;;9.40;99.90;;;;;;5036963;28;20033;-75
2021/11/24 03:41:15;;;;;;;17.42;9.02;;;9.40;99.90;;;;;;5036838;28;20052;-74
2021/11/24 03:43:41;;;;;;;17.75;8.35;;;9.40;99.90;;;;;;5036826;28;20038;-74
2021/11/24 03:46:07;;;;;;;18.48;7.80;;;9.40;99.90;;;;;;5036405;28;20037;-77
2021/11/24 03:48:33;;;;;;;23.58;8.13;;;9.50;99.90;;;;;;5036380;28;20048;-76
2021/11/24 03:50:58;;;;;;;23.10;9.05;;;9.40;99.90;;;;;;5036115;28;20041;-76
2021/11/24 03:53:24;;;;;;;19.50;7.65;;;9.40;99.90;;;;;;5036356;28;20045;-76
2021/11/24 03:55:50;;;;;;;21.13;9.18;;;9.30;99.90;;;;;;5036592;28;20056;-76
2021/11/24 03:58:16;;;;;;;20.33;8.13;;;9.00;99.90;;;;;;5036856;28;20064;-76
2021/11/24 04:00:42;;;;;;;18.27;7.32;;;9.00;99.90;;;;;;5035941;28;20040;-75
2021/11/24 04:03:08;;;;;;;14.48;7.40;;;9.00;99.90;;;;;;5036052;28;20124;-76
2021/11/24 04:05:34;;;;;;;26.00;7.68;;;9.00;99.90;;;;;;5035984;28;20041;-76
2021/11/24 04:08:00;;;;;;;19.95;8.07;;;9.00;99.90;;;;;;5036262;28;20431;-75
2021/11/24 04:10:25;;;;;;;23.35;8.77;;;9.00;99.90;;;;;;5036086;28;20061;-75
2021/11/24 04:12:51;;;;;;;22.02;8.52;;;9.00;99.90;;;;;;5035726;28;20399;-76
2021/11/24 04:15:19;;;;;;;18.85;10.25;;;8.80;99.90;;;;;;5035660;28;20037;-75
2021/11/24 04:17:46;;;;;;;14.25;7.05;;;8.80;99.90;;;;;;5035865;28;20042;-75
2021/11/24 04:20:16;;;;;;;19.83;7.80;;;8.80;99.90;;;;;;5035619;28;20527;-75
2021/11/24 04:22:42;;;;;;;24.58;8.70;;;8.90;99.90;;;;;;5035503;28;20048;-76
2021/11/24 04:25:09;;;;;;;24.42;9.00;;;9.00;99.90;;;;;;5035963;28;20069;-76
2021/11/24 04:27:35;;;;;;;21.95;8.60;;;8.80;99.90;;;;;;5036226;28;20045;-76
2021/11/24 04:30:01;;;;;;;22.65;9.15;;;8.70;99.90;;;;;;5035420;28;20124;-75
2021/11/24 04:32:27;;;;;;;25.08;10.32;;;8.70;99.90;;;;;;5035442;28;20144;-75
2021/11/24 04:34:53;;;;;;;22.42;9.77;;;8.70;99.90;;;;;;5035576;28;20037;-75
2021/11/24 04:37:19;;;;;;;22.42;9.00;;;8.80;99.90;;;;;;5035496;28;20044;-76
2021/11/24 04:39:44;;;;;;;28.88;8.82;;;8.60;99.90;;;;;;5035442;28;20073;-76
2021/11/24 04:42:10;;;;;;;21.10;8.52;;;8.50;99.90;;;;;;5035671;28;20037;-76
2021/11/24 04:44:36;;;;;;;36.70;9.23;;;8.50;99.90;;;;;;5035851;28;20068;-76
2021/11/24 04:47:03;;;;;;;19.00;9.32;;;8.60;99.90;;;;;;5035453;28;20119;-76
2021/11/24 04:49:29;;;;;;;21.27;9.52;;;8.50;99.90;;;;;;5035607;28;20037;-76
2021/11/24 04:51:54;;;;;;;33.05;9.02;;;8.50;99.90;;;;;;5036083;28;20041;-77
2021/11/24 04:54:20;;;;;;;22.45;8.50;;;8.50;99.90;;;;;;5035202;28;20052;-77
2021/11/24 04:56:46;;;;;;;22.15;9.13;;;8.40;99.90;;;;;;5035505;28;20041;-76
2021/11/24 04:59:12;;;;;;;22.40;9.07;;;8.40;99.90;;;;;;5036029;28;20549;-76
2021/11/24 05:01:38;;;;;;;19.70;8.38;;;8.30;99.90;;;;;;5034069;28;20068;-76
2021/11/24 05:04:04;;;;;;;19.00;9.10;;;8.20;99.90;;;;;;5034103;28;20067;-76
2021/11/24 05:06:31;;;;;;;18.88;8.82;;;8.30;99.90;;;;;;5033343;28;20037;-76
2021/11/24 05:08:56;;;;;;;22.48;8.82;;;8.30;99.90;;;;;;5032729;28;20048;-76
2021/11/24 05:11:22;;;;;;;30.90;8.93;;;8.20;99.90;;;;;;5033890;28;20053;-77
2021/11/24 05:13:55;;;;;;;29.52;10.27;;;8.30;99.90;;;;;;5033606;28;20041;-77
2021/11/24 05:16:23;;;;;;;20.60;10.60;;;8.40;99.90;;;;;;5033643;28;20415;-77
2021/11/24 05:18:49;;;;;;;20.17;7.53;;;8.50;99.90;;;;;;5032961;28;20543;-79
2021/11/24 05:21:27;;;;;;;25.80;9.20;;;8.40;99.90;;;;;;5033023;28;20122;-77
2021/11/24 05:23:54;;;;;;;22.48;9.27;;;8.50;99.90;;;;;;5034089;28;20531;-77
2021/11/24 05:26:20;;;;;;;14.85;6.28;;;8.50;99.90;;;;;;5033403;28;20506;-77
2021/11/24 05:28:46;;;;;;;27.70;9.77;;;8.50;99.90;;;;;;5033864;28;20500;-75
2021/11/24 05:31:12;;;;;;;18.88;9.85;;;8.50;99.90;;;;;;5033895;28;20112;-75
2021/11/24 05:33:39;;;;;;;7.40;4.10;;;8.30;99.90;;;;;;5033571;28;20053;-76
2021/11/24 05:36:05;;;;;;;29.45;8.13;;;8.40;99.90;;;;;;5033025;28;20056;-76
2021/11/24 05:38:32;;;;;;;11.05;5.35;;;8.40;99.90;;;;;;5033109;28;20049;-74
2021/11/24 05:40:58;;;;;;;10.52;5.40;;;8.40;99.90;;;;;;5034151;28;20029;-74
2021/11/24 05:43:28;;;;;;;26.08;7.63;;;8.40;99.90;;;;;;5033302;28;20088;-74
2021/11/24 05:48:21;;;;;;;15.20;8.70;;;8.30;99.90;;;;;;5033759;28;20392;-75
2021/11/24 05:50:48;;;;;;;17.88;8.15;;;8.10;99.90;;;;;;5033235;28;20049;-74
2021/11/24 05:53:16;;;;;;;21.05;9.40;;;8.00;99.90;;;;;;5031481;28;20049;-74
2021/11/24 05:55:43;;;;;;;22.70;9.93;;;8.00;99.90;;;;;;5034362;28;20083;-74
2021/11/24 05:58:10;;;;;;;18.63;10.02;;;8.20;99.90;;;;;;5031711;28;20118;-74
2021/11/24 06:00:36;;;;;;;22.17;9.75;;;8.20;99.90;;;;;;5031617;28;20144;-74
2021/11/24 06:03:02;;;;;;;21.25;9.30;;;8.10;99.90;;;;;;5031301;28;20535;-74
2021/11/24 06:05:28;;;;;;;23.02;8.93;;;8.20;99.90;;;;;;5032424;28;20124;-74
2021/11/24 06:07:54;;;;;;;19.85;11.45;;;8.20;99.90;;;;;;5032508;28;20132;-74
2021/11/24 06:10:20;;;;;;;23.48;12.10;;;8.20;99.90;;;;;;5032993;28;20096;-73
2021/11/24 06:12:46;;;;;;;19.80;9.75;;;8.20;99.90;;;;;;5034062;28;20127;-73
2021/11/24 06:15:16;;;;;;;15.88;9.02;;;8.20;99.90;;;;;;5036257;28;20047;-74
2021/11/24 06:17:43;;;;;;;18.27;8.73;;;8.10;99.90;;;;;;5036128;28;20080;-74
2021/11/24 06:20:11;;;;;;;17.23;9.52;;;8.10;99.90;;;;;;5037694;28;20516;-73
2021/11/24 06:22:38;;;;;;;22.80;9.63;;;8.10;99.90;;;;;;5038087;28;20188;-73
2021/11/24 06:25:05;;;;;;;17.02;8.85;;;8.20;99.90;;;;;;5037935;28;20076;-74
2021/11/24 06:27:31;;;;;;;19.10;9.00;;;8.20;99.90;;;;;;5037140;28;20502;-73
2021/11/24 06:29:57;;;;;;;17.42;8.32;;;8.20;99.90;;;;;;5038242;28;20129;-73
2021/11/24 06:32:23;;;;;;;17.83;9.02;;;8.20;99.90;;;;;;5037417;28;20401;-73
2021/11/24 06:34:49;;;;;;;17.52;8.55;;;8.20;99.90;;;;;;5037447;28;20049;-73
2021/11/24 06:37:15;;;;;;;23.60;8.30;;;8.20;99.90;;;;;;5037528;28;20099;-74
2021/11/24 06:39:41;;;;;;;17.77;8.27;;;8.10;99.90;;;;;;5037888;28;20069;-73
2021/11/24 06:42:07;;;;;;;15.95;8.32;;;8.20;99.90;;;;;;5037370;28;20037;-73
2021/11/24 06:44:33;;;;;;;17.50;8.45;;;8.20;99.90;;;;;;5037839;28;20040;-73
2021/11/24 06:46:59;;;;;;;19.40;8.50;;;8.10;99.90;;;;;;5037309;28;20042;-74
2021/11/24 06:49:25;;;;;;;21.10;8.73;;;8.10;99.90;;;;;;5038134;28;20039;-72
2021/11/24 06:51:52;;;;;;;60.85;30.25;;;8.20;99.90;;;;;;5037776;28;20037;-73
2021/11/24 06:54:18;;;;;;;21.90;14.25;;;8.20;99.90;;;;;;5037194;28;20033;-72
2021/11/24 06:56:46;;;;;;;31.63;17.17;;;8.20;99.90;;;;;;5037302;28;20041;-72
2021/11/24 06:59:12;;;;;;;30.30;15.23;;;8.20;99.90;;;;;;5037480;28;20535;-72
2021/11/24 07:01:38;;;;;;;19.30;10.45;;;8.10;99.90;;;;;;5037010;28;20041;-75
2021/11/24 07:04:04;;;;;;;91.13;66.78;;;8.20;99.90;;;;;;5037116;28;20053;-72
2021/11/24 07:06:31;;;;;;;22.90;14.23;;;8.20;99.90;;;;;;5037260;28;20048;-72
2021/11/24 07:08:56;;;;;;;97.50;64.97;;;8.20;99.90;;;;;;5037220;28;20104;-73
2021/11/24 07:11:27;;;;;;;17.58;9.82;;;8.20;99.90;;;;;;5037137;28;20091;-74
2021/11/24 07:13:53;;;;;;;26.02;14.85;;;8.20;99.90;;;;;;5037655;28;20033;-73
2021/11/24 07:16:19;;;;;;;22.50;12.38;;;8.20;99.90;;;;;;5036370;28;20041;-73
2021/11/24 07:18:45;;;;;;;23.98;12.25;;;8.20;99.90;;;;;;5035691;28;20044;-72
2021/11/24 07:21:10;;;;;;;16.23;9.88;;;8.10;99.90;;;;;;5052116;28;20556;-73
2021/11/24 07:23:36;;;;;;;20.98;10.63;;;8.20;99.90;;;;;;5035251;28;20087;-74
2021/11/24 07:26:02;;;;;;;16.15;8.05;;;8.30;99.90;;;;;;5033794;28;20041;-73
2021/11/24 07:28:28;;;;;;;15.65;8.60;;;8.20;99.90;;;;;;5036694;28;20069;-73
2021/11/24 07:30:54;;;;;;;13.32;6.95;;;8.20;99.90;;;;;;5036767;28;20143;-73
2021/11/24 07:33:20;;;;;;;22.60;10.07;;;8.20;99.90;;;;;;5035358;28;20537;-71
2021/11/24 07:35:45;;;;;;;11.07;7.13;;;8.30;99.90;;;;;;5036926;28;20124;-72
2021/11/24 07:38:11;;;;;;;12.20;7.82;;;8.30;99.90;;;;;;5030575;28;20041;-71
2021/11/24 07:40:38;;;;;;;16.35;8.57;;;8.30;99.90;;;;;;5036908;28;20523;-72
2021/11/24 07:43:04;;;;;;;47.25;32.58;;;8.30;99.90;;;;;;5036778;28;20061;-73
2021/11/24 07:45:30;;;;;;;24.95;14.88;;;8.30;99.90;;;;;;5036745;28;20119;-72
2021/11/24 07:47:56;;;;;;;30.10;23.30;;;8.30;99.90;;;;;;5036621;28;20484;-71
2021/11/24 07:50:22;;;;;;;12.85;6.65;;;8.30;99.90;;;;;;5036445;28;20034;-71
2021/11/24 07:52:48;;;;;;;13.32;6.57;;;8.30;99.90;;;;;;5036391;28;20068;-71
2021/11/24 07:55:13;;;;;;;12.18;6.68;;;8.30;99.90;;;;;;5036433;28;20037;-71
2021/11/24 07:57:39;;;;;;;12.70;8.90;;;8.30;99.90;;;;;;5036311;28;20543;-71
2021/11/24 08:00:06;;;;;;;15.85;6.85;;;8.30;99.90;;;;;;5037047;28;20038;-71
2021/11/24 08:02:32;;;;;;;88.43;54.03;;;8.30;99.90;;;;;;5036553;28;20044;-72
2021/11/24 08:04:58;;;;;;;46.03;31.30;;;8.40;99.90;;;;;;5036301;28;20045;-71
2021/11/24 08:07:24;;;;;;;15.95;9.73;;;8.40;99.90;;;;;;5036403;28;20049;-71
2021/11/24 08:09:51;;;;;;;18.95;8.95;;;8.40;99.90;;;;;;5036666;28;20037;-72
2021/11/24 08:12:17;;;;;;;15.77;9.20;;;8.40;99.90;;;;;;5036021;28;20123;-72
2021/11/24 08:14:43;;;;;;;15.75;9.00;;;8.50;99.90;;;;;;5036206;28;20040;-72
2021/11/24 08:17:09;;;;;;;21.42;14.18;;;8.50;99.90;;;;;;5036016;28;20061;-71
2021/11/24 08:19:35;;;;;;;19.98;11.15;;;8.50;99.90;;;;;;5036696;28;20076;-71
2021/11/24 08:22:01;;;;;;;54.30;37.92;;;8.60;99.90;;;;;;5035899;28;20057;-72
2021/11/24 08:24:28;;;;;;;20.17;10.05;;;8.60;99.90;;;;;;5035777;28;20049;-72
2021/11/24 08:26:55;;;;;;;16.70;8.75;;;8.60;99.90;;;;;;5035335;28;20045;-72
2021/11/24 08:29:21;;;;;;;16.67;9.18;;;8.50;99.90;;;;;;5035568;28;20041;-72
2021/11/24 08:31:46;;;;;;;20.73;8.50;;;8.60;99.90;;;;;;5033539;28;20116;-72
2021/11/24 08:34:12;;;;;;;20.50;12.45;;;8.60;99.90;;;;;;5033189;28;20176;-72
2021/11/24 08:36:39;;;;;;;15.35;7.88;;;8.60;99.90;;;;;;5034143;28;20107;-72
2021/11/24 08:39:06;;;;;;;20.55;13.25;;;8.50;99.90;;;;;;5034143;28;20045;-72
2021/11/24 08:41:32;;;;;;;17.17;8.05;;;8.60;99.90;;;;;;5035206;28;20100;-73
2021/11/24 08:43:58;;;;;;;38.58;23.92;;;8.60;99.90;;;;;;5022702;28;20041;-74
2021/11/24 08:46:24;;;;;;;17.67;9.75;;;8.60;99.90;;;;;;5014807;28;20134;-73
2021/11/24 08:48:50;;;;;;;15.25;8.80;;;8.60;99.90;;;;;;5015538;28;20042;-72
2021/11/24 08:51:16;;;;;;;13.95;6.88;;;8.60;99.90;;;;;;5015272;28;20413;-72
2021/11/24 08:53:42;;;;;;;19.35;9.07;;;8.60;99.90;;;;;;5015011;28;20065;-72
2021/11/24 08:56:08;;;;;;;15.98;8.18;;;8.60;99.90;;;;;;5015194;28;20072;-72
2021/11/24 08:58:34;;;;;;;12.00;6.38;;;8.60;99.90;;;;;;5015260;28;20061;-72
2021/11/24 09:01:00;;;;;;;37.88;30.58;;;8.60;99.90;;;;;;5015379;28;20042;-72
2021/11/24 09:03:25;;;;;;;13.25;6.57;;;8.60;99.90;;;;;;5015243;28;20088;-73
2021/11/24 09:05:51;;;;;;;10.23;6.15;;;8.60;99.90;;;;;;5015220;28;20501;-73
2021/11/24 09:08:17;;;;;;;13.25;6.07;;;8.60;99.90;;;;;;5015243;28;20088;-72
2021/11/24 09:10:43;;;;;;;15.88;9.48;;;8.60;99.90;;;;;;5015246;28;20076;-72
2021/11/24 09:13:09;;;;;;;13.27;6.65;;;8.50;99.90;;;;;;5015031;28;20045;-73
2021/11/24 09:15:35;;;;;;;14.00;6.50;;;8.60;99.90;;;;;;5015414;28;20041;-73
2021/11/24 09:18:03;;;;;;;13.90;7.38;;;8.50;99.90;;;;;;5014167;28;20038;-72
2021/11/24 09:20:29;;;;;;;15.82;5.97;;;8.50;99.90;;;;;;5015329;28;20512;-72
2021/11/24 09:22:55;;;;;;;12.68;5.32;;;8.40;99.90;;;;;;5014563;28;20057;-73
2021/11/24 09:25:25;;;;;;;16.52;6.13;;;8.40;99.90;;;;;;5014974;28;20041;-73
2021/11/24 09:28:06;;;;;;;12.30;5.22;;;8.40;99.90;;;;;;5015198;28;20050;-73
2021/11/24 09:30:31;;;;;;;14.30;5.28;;;8.40;99.90;;;;;;5014516;28;20437;-72
2021/11/24 09:32:58;;;;;;;49.40;32.88;;;8.30;99.90;;;;;;5013957;28;20041;-73
2021/11/24 09:35:24;;;;;;;16.15;5.95;;;8.40;99.90;;;;;;5012120;28;20534;-73
2021/11/24 09:37:50;;;;;;;15.55;7.50;;;8.40;99.90;;;;;;5014220;28;20489;-74
2021/11/24 09:40:17;;;;;;;11.88;6.18;;;8.40;99.90;;;;;;5013919;28;20034;-73
2021/11/24 09:42:46;;;;;;;12.38;5.47;;;8.40;99.90;;;;;;5009756;28;20045;-73
2021/11/24 09:45:16;;;;;;;15.30;5.75;;;8.30;99.90;;;;;;5031485;28;20042;-72
2021/11/24 09:47:47;;;;;;;13.90;7.18;;;8.30;99.90;;;;;;5030700;28;20064;-72
2021/11/24 09:50:12;;;;;;;;;;;8.40;99.90;;;;;;5032735;28;20029;-73
2021/11/24 09:52:43;;;;;;;13.70;5.82;;;8.30;99.90;;;;;;5033548;28;19909;-72
2021/11/24 09:55:10;;;;;;;10.38;5.75;;;8.30;99.90;;;;;;5033918;28;20069;-73
2021/11/24 09:57:35;;;;;;;15.07;6.10;;;8.30;99.90;;;;;;5034017;28;20048;-71
2021/11/24 10:00:05;;;;;;;12.60;6.25;;;8.40;99.90;;;;;;5033163;28;20435;-73
2021/11/24 10:02:32;;;;;;;12.48;6.55;;;8.40;99.90;;;;;;5031226;28;20072;-72
2021/11/24 10:04:58;;;;;;;19.17;6.57;;;8.40;99.90;;;;;;5032268;28;20129;-72
2021/11/24 10:07:24;;;;;;;7.05;4.43;;;8.40;99.90;;;;;;5033402;28;20049;-72
2021/11/24 10:09:50;;;;;;;10.65;5.25;;;8.30;99.90;;;;;;5032017;28;20124;-72
2021/11/24 10:12:16;;;;;;;12.18;4.32;;;8.30;99.90;;;;;;5033028;28;20037;-72
2021/11/24 10:14:43;;;;;;;9.70;4.45;;;8.30;99.90;;;;;;5033792;28;20041;-72
2021/11/24 10:17:29;;;;;;;7.38;3.83;;;8.10;99.90;;;;;;5032783;28;20505;-72
2021/11/24 10:20:11;;;;;;;8.00;4.07;;;8.20;99.90;;;;;;5032866;28;20033;-71
2021/11/24 10:22:39;;;;;;;16.60;4.72;;;8.20;99.90;;;;;;5033711;28;20041;-72
2021/11/24 10:25:14;;;;;;;17.20;4.78;;;8.20;99.90;;;;;;5034264;28;20052;-72
2021/11/24 10:27:47;;;;;;;10.43;5.57;;;8.20;99.90;;;;;;5033887;28;20570;-72
2021/11/24 10:30:27;;;;;;;16.80;6.57;;;8.10;99.90;;;;;;5034063;28;20125;-72
2021/11/24 10:32:53;;;;;;;7.20;4.15;;;8.20;99.90;;;;;;5033889;28;20099;-72
2021/11/24 10:35:30;;;;;;;9.45;4.38;;;8.10;99.90;;;;;;5034206;28;20037;-72
2021/11/24 10:38:15;;;;;;;10.93;5.38;;;8.20;99.90;;;;;;5033965;28;20068;-71
2021/11/24 10:40:43;;;;;;;9.00;4.38;;;8.20;99.90;;;;;;5033864;28;20125;-71
2021/11/24 10:43:14;;;;;;;7.05;4.43;;;8.20;99.90;;;;;;5034329;28;20064;-71
2021/11/24 10:45:54;;;;;;;9.63;4.18;;;8.10;99.90;;;;;;5034750;28;20037;-71
2021/11/24 10:48:28;;;;;;;9.75;3.95;;;8.10;99.90;;;;;;5033304;28;20041;-73
2021/11/24 10:50:55;;;;;;;12.90;4.25;;;8.10;99.90;;;;;;5034574;28;20044;-73
2021/11/24 10:53:21;;;;;;;8.73;4.60;;;8.10;99.90;;;;;;5034094;28;20111;-73
2021/11/24 10:55:47;;;;;;;18.65;4.55;;;8.10;99.90;;;;;;5032806;28;20551;-73
2021/11/24 10:58:24;;;;;;;7.15;4.13;;;8.20;99.90;;;;;;5033990;28;20122;-73
2021/11/24 11:00:53;;;;;;;12.23;3.80;;;8.20;99.90;;;;;;5036172;28;20045;-73
2021/11/24 11:03:21;;;;;;;10.32;4.47;;;8.20;99.90;;;;;;5036259;28;20048;-73
2021/11/24 11:05:53;;;;;;;10.30;4.38;;;8.20;99.90;;;;;;5036297;28;20049;-73
2021/11/24 11:08:19;;;;;;;10.70;5.10;;;8.30;99.90;;;;;;5034941;28;20063;-73
2021/11/24 11:10:49;;;;;;;16.05;5.38;;;8.30;99.90;;;;;;5034786;28;20079;-73
2021/11/24 11:13:19;;;;;;;11.77;5.45;;;8.30;99.90;;;;;;5036516;28;20049;-73
2021/11/24 11:15:46;;;;;;;12.45;5.43;;;8.40;99.90;;;;;;5037247;28;20037;-73
2021/11/24 11:18:14;;;;;;;8.95;5.75;;;8.40;99.90;;;;;;5037194;28;20611;-75
2021/11/24 11:20:50;;;;;;;16.90;5.90;;;8.40;99.90;;;;;;5036145;28;20034;-73
2021/11/24 11:23:26;;;;;;;13.18;5.78;;;8.40;99.90;;;;;;5036761;28;20107;-73
2021/11/24 11:26:05;;;;;;;15.13;5.88;;;8.40;99.90;;;;;;5036986;28;20056;-73
2021/11/24 11:28:36;;;;;;;14.77;6.65;;;8.30;99.90;;;;;;5037287;28;20086;-73
2021/11/24 11:31:03;;;;;;;13.43;6.32;;;8.30;99.90;;;;;;5037514;28;20041;-73
2021/11/24 11:33:33;;;;;;;15.10;6.72;;;8.30;99.90;;;;;;5036577;28;20037;-73
2021/11/24 11:36:08;;;;;;;14.93;6.40;;;8.30;99.90;;;;;;5036966;28;20489;-73
2021/11/24 11:38:46;;;;;;;18.33;7.22;;;8.40;99.90;;;;;;5036725;28;20072;-73
2021/11/24 11:41:13;;;;;;;12.48;6.30;;;8.40;99.90;;;;;;5036532;28;20033;-73
2021/11/24 11:43:41;;;;;;;14.95;7.53;;;8.40;99.90;;;;;;5036313;28;20043;-74
2021/11/24 11:46:18;;;;;;;14.98;6.68;;;8.40;99.90;;;;;;5035434;28;20042;-74
2021/11/24 11:48:45;;;;;;;32.70;12.75;;;8.30;99.90;;;;;;5035756;28;20099;-74
2021/11/24 11:51:12;;;;;;;24.27;11.32;;;8.30;99.90;;;;;;5036136;28;20037;-74
2021/11/24 11:53:46;;;;;;;22.20;10.40;;;8.40;99.90;;;;;;5036164;28;20049;-74
2021/11/24 11:56:15;;;;;;;27.30;13.52;;;8.40;99.90;;;;;;5036344;28;20044;-74
2021/11/24 11:58:51;;;;;;;36.95;18.50;;;8.40;99.90;;;;;;5035693;28;20045;-74
2021/11/24 12:01:28;;;;;;;21.15;10.27;;;8.50;99.90;;;;;;5036229;28;20083;-74
2021/11/24 12:04:01;;;;;;;20.70;7.60;;;8.50;99.90;;;;;;5035452;28;20562;-74
2021/11/24 12:06:31;;;;;;;38.78;23.23;;;8.40;99.90;;;;;;5034522;28;20578;-73
2021/11/24 12:09:28;;;;;;;16.43;8.33;;;8.40;99.90;;;;;;5034356;28;20083;-73
2021/11/24 12:14:50;;;;;;;16.08;7.60;;;8.40;99.90;;;;;;5035904;28;20025;-76
2021/11/24 12:17:37;;;;;;;28.15;19.67;;;8.40;99.90;;;;;;5035156;28;20029;-73
2021/11/24 12:20:15;;;;;;;18.63;9.18;;;8.50;99.90;;;;;;5035620;28;20068;-73
2021/11/24 12:22:51;;;;;;;16.05;8.18;;;8.50;99.90;;;;;;5024619;28;20049;-72
2021/11/24 12:27:57;;;;;;;48.53;33.55;;;8.40;99.90;;;;;;5034977;28;20438;-73
2021/11/24 12:30:46;;;;;;;15.25;8.25;;;8.50;99.90;;;;;;5016978;28;20489;-73
2021/11/24 12:33:27;;;;;;;28.90;14.75;;;8.50;99.90;;;;;;5016037;28;20042;-73
2021/11/24 12:35:57;;;;;;;18.35;9.43;;;8.50;99.90;;;;;;5016898;28;20116;-73
2021/11/24 12:38:39;;;;;;;13.18;6.93;;;8.40;99.90;;;;;;5029041;28;20100;-73
2021/11/24 12:41:09;;;;;;;14.57;7.75;;;8.40;99.90;;;;;;5034473;28;20041;-73
2021/11/24 12:43:39;;;;;;;24.77;13.32;;;8.40;99.90;;;;;;5035114;28;20052;-73
2021/11/24 12:46:12;;;;;;;14.85;6.97;;;8.40;99.90;;;;;;5030855;28;20045;-73
2021/11/24 12:48:53;;;;;;;333.88;175.23;;;8.40;99.90;;;;;;5031603;28;20049;-73
2021/11/24 12:51:24;;;;;;;;;;;8.40;99.90;;;;;;5035652;28;20040;-73
2021/11/24 12:54:05;;;;;;;20.35;8.43;;;8.40;99.90;;;;;;5035506;28;20384;-73
2021/11/24 12:56:41;;;;;;;38.83;20.35;;;8.20;99.90;;;;;;5034610;28;20049;-73